Latest Weather Observations for Kilmore Gap

IDV60801

Issued at 5:02 pm EDT Monday 30 March 2015 (issued every 30 minutes, with the page automatically refreshed every 10 minutes)

About weather observations | Map of weather stations | Latest weather observations for VIC | Other Formats
Station Details ID: 088162 Name: KILMORE GAP Lat: -37.38 Lon: 144.97 Height: 527.8 m
Data from the previous 72 hours. | See also: Recent months at Kilmore Gap
Date/Time
EDT
Temp
°C
App
Temp
°C
Dew
Point
Rel
Hum
%
Delta-T
°C
Wind Press
QNH
hPa
Press
MSL
hPa
Rain
since 9 am
mm
Dir
 
Spd
km/h
Gust
km/h
Spd
kts
Gust
kts
30/05:00pm 20.7 17.0 9.6 49 6.1 S 19 24 10 13 1024.1 - 0.0
30/04:30pm 21.8 18.1 9.3 45 6.8 S 19 33 10 18 1024.0 - 0.0
30/04:00pm 22.3 19.6 8.8 42 7.4 S 13 20 7 11 1023.9 - 0.0
30/03:30pm 23.4 20.4 9.4 41 7.8 S 15 24 8 13 1024.0 - 0.0
30/03:00pm 21.7 18.6 8.9 44 6.9 SSW 15 26 8 14 1024.1 1023.1 0.0
30/02:30pm 22.2 18.9 8.0 40 7.6 WSW 15 22 8 12 1024.1 - 0.0
30/02:00pm 22.7 20.4 7.3 37 8.2 W 9 19 5 10 1024.3 - 0.0
30/01:30pm 22.8 20.7 8.1 39 7.9 SW 9 20 5 11 1024.6 - 0.0
30/01:00pm 21.8 19.6 8.0 41 7.4 WSW 9 17 5 9 1025.0 - 0.0
30/12:30pm 22.1 19.2 8.2 41 7.5 WSW 13 22 7 12 1025.2 - 0.0
30/12:00pm 20.1 17.6 8.1 46 6.4 WSW 11 19 6 10 1025.4 1024.3 0.0
30/11:30am 19.8 18.1 7.5 45 6.5 SSW 6 9 3 5 1025.7 - 0.0
30/11:00am 19.8 17.5 7.5 45 6.5 NW 9 15 5 8 1025.9 - 0.0
30/10:30am 19.2 17.5 8.2 49 5.8 NNE 7 13 4 7 1025.8 - 0.0
30/10:00am 17.6 13.6 8.2 54 4.9 N 19 24 10 13 1025.3 - 0.0
30/09:30am 16.2 12.7 8.7 61 3.9 N 17 20 9 11 1025.0 - 0.0
30/09:00am 14.9 11.8 8.8 67 3.2 N 15 19 8 10 1024.8 1023.7 0.0
30/08:30am 14.1 10.9 8.5 69 2.9 N 15 17 8 9 1024.4 - 0.0
30/08:00am 13.0 9.0 8.1 72 2.5 N 19 22 10 12 1024.2 - 0.0
30/07:30am 12.4 8.4 8.1 75 2.2 N 19 20 10 11 1023.9 - 0.0
30/07:00am 13.5 10.5 7.9 69 2.8 NNE 13 15 7 8 1023.6 - 0.0
30/06:30am 13.3 11.4 9.0 75 2.2 ESE 9 9 5 5 1023.4 - 0.0
30/06:00am 12.5 10.3 9.3 81 1.7 SE 11 13 6 7 1023.3 1022.2 0.0
30/05:30am 12.0 8.8 8.3 78 1.9 SSE 15 17 8 9 1023.3 - 0.0
30/05:00am 11.8 8.9 8.1 78 1.9 SSE 13 17 7 9 1023.1 - 0.0
30/04:30am 12.0 8.7 7.9 76 2.1 SSE 15 17 8 9 1023.1 - 0.0
30/04:00am 11.5 7.8 7.8 78 1.9 SSE 17 19 9 10 1023.1 - 0.0
30/03:30am 11.9 8.3 8.2 78 1.9 SSE 17 20 9 11 1023.4 - 0.0
30/03:00am 11.5 7.5 8.4 81 1.6 SSE 19 22 10 12 1023.5 1022.4 0.0
30/02:30am 11.1 7.1 8.3 83 1.4 SE 19 24 10 13 1023.7 - 0.0
30/02:00am 11.2 7.0 8.4 83 1.4 SSE 20 24 11 13 1023.9 - 0.0
30/01:30am 11.0 6.1 8.6 85 1.2 SSE 24 28 13 15 1024.0 - 0.0
30/01:00am 10.7 6.9 9.0 89 0.9 SSE 19 20 10 11 1023.9 - 0.0
30/12:30am 10.6 7.9 8.9 89 0.9 S 13 17 7 9 1024.1 - 0.0
30/12:00am 11.2 7.7 8.9 86 1.2 S 17 24 9 13 1024.3 1023.3 0.0
 
Date/Time
EDT
Temp
°C
App
Temp
°C
Dew
Point
Rel
Hum
%
Delta-T
°C
Wind Press
QNH
hPa
Press
MSL
hPa
Rain
since 9 am
mm
Dir
 
Spd
km/h
Gust
km/h
Spd
kts
Gust
kts
29/11:30pm 11.2 7.4 8.9 86 1.2 S 19 24 10 13 1024.4 - 0.0
29/11:00pm 11.5 7.7 8.9 84 1.3 S 19 24 10 13 1024.3 - 0.0
29/10:30pm 11.8 8.6 9.9 88 1.0 S 17 22 9 12 1024.4 - 0.0
29/10:00pm 12.6 9.4 10.1 85 1.3 S 17 24 9 13 1024.3 - 0.0
29/09:30pm 13.1 9.8 9.4 78 1.9 SSW 17 24 9 13 1024.1 - 0.0
29/09:00pm 13.7 10.7 9.2 74 2.3 S 15 20 8 11 1023.8 1022.7 0.0
29/08:30pm 14.4 11.2 8.4 67 3.1 S 15 20 8 11 1023.4 - 0.0
29/08:00pm 16.2 12.9 7.9 58 4.3 SSE 15 17 8 9 1022.9 - 0.0
29/07:30pm 17.4 14.9 8.0 54 4.9 SSE 11 17 6 9 1022.7 - 0.0
29/07:00pm 18.5 15.5 7.6 49 5.7 SSE 13 17 7 9 1022.3 - 0.0
29/06:30pm 21.4 17.5 3.6 31 8.8 W 13 19 7 10 1021.9 - 0.0
29/06:00pm 21.5 18.0 3.7 31 8.8 WNW 11 17 6 9 1021.7 1020.6 0.0
29/05:30pm 21.9 18.4 3.6 30 9.0 W 11 20 6 11 1021.5 - 0.0
29/05:00pm 22.2 16.9 2.8 28 9.5 W 20 24 11 13 1021.4 - 0.0
29/04:30pm 22.4 17.6 4.5 31 9.0 NW 19 30 10 16 1021.4 - 0.0
29/04:00pm 22.2 17.9 5.2 33 8.7 WNW 17 24 9 13 1021.6 - 0.0
29/03:30pm 22.3 18.4 5.3 33 8.7 WNW 15 22 8 12 1021.8 - 0.0
29/03:00pm 22.3 17.5 5.7 34 8.5 NNW 20 28 11 15 1021.9 1020.8 0.0
29/02:30pm 21.5 16.4 5.8 36 8.1 NNW 22 32 12 17 1022.1 - 0.0
29/02:00pm 21.0 16.7 6.9 40 7.4 NNW 19 28 10 15 1022.3 - 0.0
29/01:30pm 21.2 17.3 8.8 45 6.7 WNW 19 26 10 14 1022.8 - 0.0
29/01:00pm 19.6 15.5 8.0 47 6.1 N 19 30 10 16 1023.1 - 0.0
29/12:30pm 18.5 15.6 8.2 51 5.4 NW 13 20 7 11 1023.4 - 0.0
29/12:00pm 18.8 14.9 8.5 51 5.5 NW 19 26 10 14 1023.5 1022.4 0.0
29/11:30am 18.1 15.0 8.7 54 5.0 NNW 15 24 8 13 1023.8 - 0.0
29/11:00am 17.2 14.8 8.6 57 4.5 NW 11 20 6 11 1024.0 - 0.0
29/10:30am 16.5 13.6 8.2 58 4.3 N 13 17 7 9 1024.1 - 0.0
29/10:00am 15.9 14.0 8.9 63 3.7 NNW 9 15 5 8 1024.1 - 0.0
29/09:30am 14.4 12.0 8.8 69 2.9 N 11 15 6 8 1024.1 - 0.0
29/09:00am 13.8 11.4 8.6 71 2.7 N 11 13 6 7 1023.8 1022.7 0.0
29/08:30am 12.2 9.0 8.5 78 1.9 N 15 17 8 9 1023.7 - 0.0
29/08:00am 11.0 7.3 8.0 82 1.5 N 17 17 9 9 1023.3 - 0.0
29/07:30am 10.6 7.6 7.8 83 1.4 N 13 15 7 8 1023.0 - 0.0
29/07:00am 10.3 6.8 7.4 82 1.4 N 15 17 8 9 1022.4 - 0.0
29/06:30am 10.4 7.0 7.6 83 1.4 N 15 17 8 9 1022.1 - 0.0
29/06:00am 10.4 7.0 7.6 83 1.4 N 15 17 8 9 1021.9 1020.8 0.0
29/05:30am 10.1 6.7 7.5 84 1.3 N 15 17 8 9 1021.4 - 0.0
29/05:00am 10.1 6.0 8.0 87 1.0 N 19 20 10 11 1021.1 - 0.0
29/04:30am 10.4 6.6 7.6 83 1.4 N 17 19 9 10 1021.0 - 0.0
29/04:00am 10.9 7.9 7.8 81 1.5 N 13 15 7 8 1021.1 - 0.0
29/03:30am 10.8 7.8 7.9 82 1.4 N 13 13 7 7 1021.3 - 0.0
29/03:00am 10.8 9.2 8.0 83 1.4 SE 6 7 3 4 1021.6 1020.5 0.0
29/02:30am 10.7 9.1 7.9 83 1.4 S 6 7 3 4 1021.9 - 0.0
29/02:00am 10.5 8.7 7.9 84 1.3 S 7 9 4 5 1022.1 - 0.0
29/01:30am 10.7 8.5 7.8 82 1.4 SSE 9 11 5 6 1022.2 - 0.0
29/01:00am 11.0 9.2 8.0 82 1.5 SSE 7 9 4 5 1022.6 - 0.0
29/12:30am 10.1 8.0 8.2 88 0.9 SSW 9 9 5 5 1022.7 - 0.0
29/12:00am 10.1 8.3 7.9 86 1.1 SW 7 9 4 5 1022.8 1021.7 0.0
 
Date/Time
EDT
Temp
°C
App
Temp
°C
Dew
Point
Rel
Hum
%
Delta-T
°C
Wind Press
QNH
hPa
Press
MSL
hPa
Rain
since 9 am
mm
Dir
 
Spd
km/h
Gust
km/h
Spd
kts
Gust
kts
28/11:30pm 11.5 9.8 8.2 80 1.7 S 7 9 4 5 1022.8 - 0.0
28/11:00pm 10.9 9.1 8.1 83 1.4 S 7 9 4 5 1023.0 - 0.0
28/10:30pm 11.6 9.1 8.3 80 1.7 SSE 11 13 6 7 1022.8 - 0.0
28/10:00pm 11.5 9.5 8.5 82 1.5 SE 9 13 5 7 1022.9 - 0.0
28/09:30pm 11.2 8.4 8.6 84 1.3 SE 13 17 7 9 1022.9 - 0.0
28/09:00pm 11.1 8.3 8.5 84 1.3 SSE 13 15 7 8 1022.9 1021.8 0.0
28/08:30pm 11.5 9.0 8.4 81 1.6 SSE 11 15 6 8 1022.8 - 0.0
28/08:00pm 11.8 8.9 8.3 79 1.8 SSE 13 17 7 9 1022.6 - 0.0
28/07:30pm 12.0 8.7 7.9 76 2.1 SSE 15 17 8 9 1022.4 - 0.0
28/07:00pm 12.9 9.2 8.0 72 2.5 SE 17 20 9 11 1022.3 - 0.0
28/06:30pm 13.5 9.8 7.9 69 2.8 SE 17 20 9 11 1022.3 - 0.0
28/06:00pm 14.1 10.4 7.9 66 3.2 SE 17 22 9 12 1022.1 1021.0 0.0
28/05:30pm 15.3 11.3 8.1 62 3.7 SE 19 26 10 14 1022.2 - 0.0
28/05:00pm 15.6 11.8 7.6 59 4.1 SE 17 22 9 12 1022.3 - 0.0
28/04:30pm 15.5 11.7 7.5 59 4.1 SSE 17 24 9 13 1022.9 - 0.0
28/04:00pm 16.7 13.4 7.9 56 4.6 SE 15 20 8 11 1023.1 - 0.0
28/03:30pm 16.5 13.2 8.0 57 4.4 SSE 15 22 8 12 1023.2 - 0.0
28/03:00pm 15.4 11.9 7.2 58 4.1 SSE 15 24 8 13 1023.6 1022.5 0.0
28/02:30pm 15.2 12.6 7.7 61 3.8 SE 11 19 6 10 1023.8 - 0.0
28/02:00pm 14.8 12.6 7.8 63 3.6 SSE 9 17 5 9 1024.3 - 0.0
28/01:30pm 14.1 11.5 7.6 65 3.3 S 11 19 6 10 1024.7 - 0.0
28/01:00pm 13.1 10.8 7.5 69 2.8 S 9 15 5 8 1025.1 - 0.0
28/12:30pm 12.1 9.4 7.4 73 2.3 SSE 11 20 6 11 1025.4 - 0.0
28/12:00pm 12.0 10.2 7.9 76 2.1 SSW 7 15 4 8 1025.8 1024.8 0.0
28/11:30am 11.5 9.3 7.8 78 1.9 SW 9 15 5 8 1026.0 - 0.0
28/11:00am 11.3 9.6 8.3 82 1.5 SSW 7 13 4 7 1025.9 - 0.0
28/10:30am 10.6 8.5 8.4 86 1.1 S 9 13 5 7 1025.9 - 0.0
28/10:00am 9.7 7.1 7.8 88 0.9 SW 11 17 6 9 1026.1 - 0.0
28/09:30am 9.3 6.7 7.6 89 0.8 SSW 11 17 6 9 1025.9 - 0.0
28/09:00am 8.8 6.1 7.4 91 0.7 SSW 11 15 6 8 1025.7 1024.7 0.4
28/08:30am 8.3 5.9 7.1 92 0.6 S 9 11 5 6 1025.3 - 0.4
28/08:00am 7.8 5.7 6.7 93 0.5 SW 7 9 4 5 1025.1 - 0.4
28/07:30am 7.4 4.8 6.3 93 0.5 SW 9 13 5 7 1024.8 - 0.4
28/07:00am 7.1 3.8 6.2 94 0.4 SW 13 17 7 9 1024.6 - 0.4
28/06:30am 7.1 3.0 6.2 94 0.4 SW 17 20 9 11 1024.3 - 0.4
28/06:00am 7.0 2.9 6.1 94 0.4 SW 17 20 9 11 1024.2 1023.2 0.4
28/05:30am 7.1 3.4 6.5 96 0.3 SW 15 19 8 10 1024.1 - 0.4
28/05:00am 6.9 3.2 6.5 97 0.2 SW 15 17 8 9 1024.1 - 0.4
28/04:30am 7.2 3.5 6.5 95 0.3 SW 15 20 8 11 1024.0 - 0.4
28/04:00am 7.6 3.3 6.9 95 0.3 SW 19 22 10 12 1024.1 - 0.4
28/03:30am 7.5 3.6 6.9 96 0.3 SW 17 22 9 12 1024.1 - 0.4
28/03:00am 7.4 3.1 7.0 97 0.2 SW 19 22 10 12 1024.2 1023.2 0.4
28/02:30am 7.6 3.1 7.0 96 0.3 SW 20 24 11 13 1024.2 - 0.4
28/02:00am 7.6 4.1 7.0 96 0.3 SW 15 22 8 12 1024.6 - 0.4
28/01:30am 8.1 3.8 7.0 93 0.5 SW 19 26 10 14 1024.4 - 0.4
28/01:00am 8.4 4.1 7.2 92 0.6 SW 19 24 10 13 1024.6 - 0.4
28/12:30am 8.8 4.3 6.9 88 0.9 SSW 20 26 11 14 1024.7 - 0.4
28/12:00am 9.0 4.7 6.8 86 1.1 SSW 19 24 10 13 1024.8 1023.7 0.4
 
Date/Time
EDT
Temp
°C
App
Temp
°C
Dew
Point
Rel
Hum
%
Delta-T
°C
Wind Press
QNH
hPa
Press
MSL
hPa
Rain
since 9 am
mm
Dir
 
Spd
km/h
Gust
km/h
Spd
kts
Gust
kts
27/11:30pm 9.4 4.8 6.7 83 1.3 SSW 20 28 11 15 1024.9 - 0.4
27/11:00pm 10.0 5.4 6.5 79 1.7 SSW 20 30 11 16 1024.9 - 0.4
27/10:30pm 10.1 5.6 6.3 77 1.8 SW 19 26 10 14 1024.9 - 0.4
27/10:00pm 10.7 6.2 6.3 74 2.1 SSW 19 32 10 17 1025.1 - 0.4
27/09:30pm 10.8 6.7 6.2 73 2.2 SSW 17 22 9 12 1025.0 - 0.4
27/09:00pm 10.8 6.0 5.6 70 2.5 SSW 20 28 11 15 1024.8 1023.7 0.4
27/08:30pm 11.0 6.1 4.2 63 3.1 SSW 19 24 10 13 1024.7 - 0.4
27/08:00pm 11.6 6.8 4.6 62 3.3 SW 19 28 10 15 1024.2 - 0.4
27/07:30pm 12.0 6.7 5.0 62 3.3 SW 22 32 12 17 1023.9 - 0.4
27/07:00pm 12.3 7.4 5.0 61 3.5 SW 20 33 11 18 1023.8 - 0.4
27/06:30pm 12.6 7.8 4.8 59 3.7 SSW 19 30 10 16 1023.5 - 0.4
27/06:00pm 12.7 7.8 4.9 59 3.7 SW 20 32 11 17 1023.3 1022.2 0.4
27/05:30pm 12.7 7.5 5.4 61 3.5 SW 22 33 12 18 1023.3 - 0.4

Other Formats:

Comma delimited format used in spreadsheet applications
http://www.bom.gov.au/fwo/IDV60801/IDV60801.94860.axf

JavaScript Object Notation format (JSON) in row-major order
http://www.bom.gov.au/fwo/IDV60801/IDV60801.94860.json